createdAt,value
2023-04-28T00:01:22.119Z,3.50
2023-04-28T00:04:24.870Z,3.53
2023-04-28T00:07:27.682Z,3.75
2023-04-28T00:10:31.348Z,3.00
2023-04-28T00:13:33.572Z,3.30
2023-04-28T00:16:36.637Z,5.60
2023-04-28T00:19:39.051Z,3.40
2023-04-28T00:22:41.574Z,3.95
2023-04-28T00:25:43.816Z,3.15
2023-04-28T00:28:46.091Z,3.30
2023-04-28T00:31:48.417Z,3.80
2023-04-28T00:34:50.720Z,2.65
2023-04-28T00:37:52.904Z,4.57
2023-04-28T00:40:55.289Z,3.60
2023-04-28T00:43:57.847Z,5.28
2023-04-28T00:47:00.237Z,5.70
2023-04-28T00:50:02.672Z,2.70
2023-04-28T00:53:05.406Z,3.20
2023-04-28T00:56:08.331Z,3.22
2023-04-28T00:59:10.838Z,4.43
2023-04-28T01:02:18.594Z,4.25
2023-04-28T01:05:21.585Z,3.47
2023-04-28T01:08:34.904Z,4.05
2023-04-28T01:11:38.427Z,3.17
2023-04-28T01:14:46.269Z,3.28
2023-04-28T01:17:49.046Z,4.78
2023-04-28T01:20:51.737Z,3.35
2023-04-28T01:23:53.966Z,5.13
2023-04-28T01:26:56.464Z,4.72
2023-04-28T01:29:58.875Z,3.28
2023-04-28T01:33:01.540Z,3.50
2023-04-28T01:36:03.976Z,4.00
2023-04-28T01:39:06.957Z,3.75
2023-04-28T01:42:09.153Z,3.10
2023-04-28T01:45:12.296Z,4.10
2023-04-28T01:48:14.494Z,3.88
2023-04-28T01:51:16.725Z,3.30
2023-04-28T01:54:19.021Z,3.53
2023-04-28T01:57:22.432Z,3.70
2023-04-28T02:00:25.439Z,3.30
2023-04-28T02:03:28.938Z,3.33
2023-04-28T02:06:31.876Z,3.13
2023-04-28T02:09:34.634Z,5.60
2023-04-28T02:12:36.906Z,3.50
2023-04-28T02:15:43.307Z,3.53
2023-04-28T02:18:45.765Z,3.40
2023-04-28T02:21:48.086Z,3.83
2023-04-28T02:24:50.531Z,5.50
2023-04-28T02:27:52.814Z,3.50
2023-04-28T02:31:05.348Z,5.50
2023-04-28T02:34:07.628Z,4.20
2023-04-28T02:37:09.939Z,3.83
2023-04-28T02:40:12.734Z,3.85
2023-04-28T02:43:14.928Z,4.60
2023-04-28T02:46:17.305Z,4.22
2023-04-28T02:49:19.685Z,5.20
2023-04-28T02:52:21.947Z,3.67
2023-04-28T02:55:24.778Z,4.50
2023-04-28T02:58:28.448Z,3.90
2023-04-28T03:01:30.664Z,4.28
2023-04-28T03:04:32.990Z,4.18
2023-04-28T03:07:35.309Z,5.57
2023-04-28T03:10:37.536Z,6.10
2023-04-28T03:13:40.416Z,5.45
2023-04-28T03:16:43.467Z,4.70
2023-04-28T03:19:45.960Z,4.78
2023-04-28T03:22:48.231Z,5.85
2023-04-28T03:25:50.773Z,4.95
2023-04-28T03:28:53.283Z,5.75
2023-04-28T03:31:55.652Z,7.43
2023-04-28T03:34:57.896Z,6.05
2023-04-28T03:38:00.154Z,4.22
2023-04-28T03:41:02.834Z,5.15
2023-04-28T03:44:20.164Z,5.47
2023-04-28T03:47:24.061Z,5.18
2023-04-28T03:50:26.766Z,5.32
2023-04-28T03:53:30.069Z,5.25
2023-04-28T03:56:32.414Z,5.45
2023-04-28T03:59:37.125Z,5.57
2023-04-28T04:02:39.917Z,5.03
2023-04-28T04:05:42.514Z,5.53
2023-04-28T04:08:44.982Z,5.28
2023-04-28T04:11:47.245Z,4.60
2023-04-28T04:14:49.649Z,5.25
2023-04-28T04:17:52.099Z,5.85
2023-04-28T04:20:56.079Z,5.00
2023-04-28T04:23:58.465Z,5.47
2023-04-28T04:27:00.788Z,6.03
2023-04-28T04:30:08.766Z,4.75
2023-04-28T04:33:12.526Z,6.13
2023-04-28T04:36:14.765Z,5.97
2023-04-28T04:39:17.089Z,7.25
2023-04-28T04:42:25.315Z,4.97
2023-04-28T04:45:46.479Z,6.30
2023-04-28T04:48:50.030Z,7.40
2023-04-28T04:51:52.476Z,9.20
2023-04-28T04:54:56.687Z,7.80
2023-04-28T04:58:00.424Z,5.65
2023-04-28T05:01:31.799Z,3.70
2023-04-28T05:04:34.253Z,7.93
2023-04-28T05:07:37.208Z,5.93
2023-04-28T05:10:39.624Z,5.93
2023-04-28T05:13:42.450Z,6.80
2023-04-28T05:16:44.890Z,5.75
2023-04-28T05:20:08.256Z,3.72
2023-04-28T05:23:10.918Z,5.45
2023-04-28T05:26:13.790Z,7.93
2023-04-28T05:29:16.762Z,4.53
2023-04-28T05:32:19.134Z,5.50
2023-04-28T05:35:21.424Z,7.70
2023-04-28T05:38:23.993Z,6.28
2023-04-28T05:41:27.351Z,4.35
2023-04-28T05:44:31.911Z,6.60
2023-04-28T05:47:35.869Z,5.60
2023-04-28T05:50:39.099Z,5.40
2023-04-28T05:53:42.047Z,5.40
2023-04-28T05:56:44.354Z,4.40
2023-04-28T05:59:47.256Z,6.90
2023-04-28T06:02:50.299Z,5.85
2023-04-28T06:05:52.722Z,6.97
2023-04-28T06:08:55.384Z,5.22
2023-04-28T06:11:57.539Z,6.80
2023-04-28T06:15:01.020Z,4.82
2023-04-28T06:18:06.332Z,6.03
2023-04-28T06:21:08.603Z,5.70
2023-04-28T06:24:11.397Z,6.85
2023-04-28T06:27:15.215Z,7.28
2023-04-28T06:30:23.504Z,4.97
2023-04-28T06:33:26.205Z,4.85
2023-04-28T06:36:28.576Z,5.57
2023-04-28T06:39:31.255Z,4.82
2023-04-28T06:42:33.468Z,8.25
2023-04-28T06:45:43.951Z,7.10
2023-04-28T06:48:46.471Z,5.00
2023-04-28T06:51:50.156Z,5.60
2023-04-28T06:54:52.465Z,4.80
2023-04-28T06:57:55.082Z,8.68
2023-04-28T07:00:57.398Z,7.30
2023-04-28T07:04:00.070Z,5.18
2023-04-28T07:07:02.543Z,5.45
2023-04-28T07:10:05.697Z,4.68
2023-04-28T07:13:07.974Z,5.57
2023-04-28T07:16:11.390Z,5.45
2023-04-28T07:19:13.664Z,4.53
2023-04-28T07:22:16.117Z,4.65
2023-04-28T07:25:18.368Z,7.05
2023-04-28T07:28:21.039Z,6.45
2023-04-28T07:31:23.453Z,4.85
2023-04-28T07:34:25.757Z,5.88
2023-04-28T07:37:30.616Z,4.57
2023-04-28T07:40:33.550Z,3.67
2023-04-28T07:43:35.982Z,4.90
2023-04-28T07:46:38.380Z,5.72
2023-04-28T07:49:40.750Z,4.30
2023-04-28T07:52:43.365Z,5.75
2023-04-28T07:55:46.411Z,5.80
2023-04-28T07:58:48.690Z,5.63
2023-04-28T08:01:50.955Z,4.60
2023-04-28T08:04:53.615Z,6.55
2023-04-28T08:07:56.160Z,5.85
2023-04-28T08:10:59.438Z,4.82
2023-04-28T08:14:03.494Z,4.00
2023-04-28T08:17:06.014Z,4.50
2023-04-28T08:20:09.389Z,5.30
2023-04-28T08:23:11.881Z,4.57
2023-04-28T08:26:14.193Z,4.13
2023-04-28T08:29:16.487Z,7.82
2023-04-28T08:32:19.031Z,4.18
2023-04-28T08:35:21.540Z,4.53
2023-04-28T08:38:25.400Z,3.55
2023-04-28T08:41:29.643Z,3.22
2023-04-28T08:44:39.903Z,3.50
2023-04-28T08:47:46.327Z,4.07
2023-04-28T08:50:53.748Z,5.72
2023-04-28T08:54:18.930Z,3.70
2023-04-28T08:57:22.313Z,4.57
2023-04-28T09:00:25.030Z,4.18
2023-04-28T09:03:27.756Z,3.22
2023-04-28T09:06:37.780Z,4.30
2023-04-28T09:09:41.311Z,5.82
2023-04-28T09:12:43.769Z,3.65
2023-04-28T09:15:46.079Z,4.13
2023-04-28T09:19:00.662Z,3.25
2023-04-28T09:22:14.483Z,3.67
2023-04-28T09:25:22.505Z,6.72
2023-04-28T09:28:24.880Z,3.70
2023-04-28T09:31:30.135Z,5.88
2023-04-28T09:34:47.192Z,3.45
2023-04-28T09:37:59.310Z,4.05
2023-04-28T09:41:04.953Z,3.40
2023-04-28T09:44:17.763Z,4.22
2023-04-28T09:47:25.007Z,3.72
2023-04-28T09:50:27.751Z,3.03
2023-04-28T09:53:30.992Z,3.40
2023-04-28T09:56:35.319Z,4.28
2023-04-28T09:59:37.812Z,3.20
2023-04-28T10:02:43.752Z,5.00
2023-04-28T10:05:47.492Z,4.30
2023-04-28T10:08:52.392Z,6.85
2023-04-28T10:11:54.663Z,5.43
2023-04-28T10:14:58.087Z,13.50
2023-04-28T10:18:00.932Z,5.88
2023-04-28T10:21:06.246Z,3.60
2023-04-28T10:24:17.683Z,3.97
2023-04-28T10:27:20.185Z,5.13
2023-04-28T10:30:28.092Z,2.95
2023-04-28T10:33:31.483Z,4.90
2023-04-28T10:36:53.132Z,4.90
2023-04-28T10:40:33.556Z,3.78
2023-04-28T10:47:06.991Z,3.65
2023-04-28T10:50:11.521Z,3.67
2023-04-28T10:53:13.835Z,3.38
2023-04-28T10:56:21.821Z,3.42
2023-04-28T10:59:30.437Z,4.18
2023-04-28T11:02:43.954Z,4.00
2023-04-28T11:06:30.150Z,3.38
2023-04-28T11:09:32.387Z,4.95
2023-04-28T11:12:34.790Z,3.70
2023-04-28T11:15:37.876Z,3.58
2023-04-28T11:18:56.891Z,5.50
2023-04-28T11:22:01.407Z,4.30
2023-04-28T11:25:04.177Z,4.25
2023-04-28T11:28:08.879Z,3.53
2023-04-28T11:31:12.862Z,3.72
2023-04-28T11:34:20.490Z,5.35
2023-04-28T11:37:23.202Z,4.50
2023-04-28T11:40:25.882Z,4.40
2023-04-28T11:43:46.091Z,4.13
2023-04-28T11:46:51.906Z,3.45
2023-04-28T11:49:54.176Z,4.38
2023-04-28T11:52:56.391Z,4.10
2023-04-28T11:56:10.778Z,4.05
2023-04-28T11:59:14.438Z,3.60
2023-04-28T12:02:24.593Z,4.45
2023-04-28T12:05:26.993Z,4.25
2023-04-28T12:08:29.868Z,5.07
2023-04-28T12:11:32.232Z,5.38
2023-04-28T12:14:54.534Z,3.55
2023-04-28T12:18:09.477Z,4.20
2023-04-28T12:21:22.085Z,4.50
2023-04-28T12:24:26.248Z,3.83
2023-04-28T12:27:29.379Z,4.50
2023-04-28T12:30:42.689Z,5.05
2023-04-28T12:33:45.130Z,4.75
2023-04-28T12:36:47.373Z,4.25
2023-04-28T12:39:49.808Z,4.90
2023-04-28T12:42:52.353Z,4.55
2023-04-28T12:45:55.901Z,5.47
2023-04-28T12:48:58.137Z,4.63
2023-04-28T12:52:00.412Z,5.47
2023-04-28T12:55:03.470Z,5.18
2023-04-28T12:58:05.880Z,5.35
2023-04-28T13:01:08.611Z,5.88
2023-04-28T13:04:11.071Z,4.68
2023-04-28T13:07:14.483Z,6.22
2023-04-28T13:10:17.284Z,5.72
2023-04-28T13:13:19.518Z,5.80
2023-04-28T13:16:21.842Z,4.95
2023-04-28T13:19:24.398Z,5.00
2023-04-28T13:22:26.695Z,5.68
2023-04-28T13:25:28.899Z,5.45
2023-04-28T13:28:31.160Z,5.72
2023-04-28T13:31:33.419Z,7.28
2023-04-28T13:34:35.645Z,6.55
2023-04-28T13:37:42.771Z,6.28
2023-04-28T13:40:45.124Z,6.10
2023-04-28T13:43:47.387Z,8.00
2023-04-28T13:46:49.903Z,6.82
2023-04-28T13:49:52.066Z,8.25
2023-04-28T13:52:54.372Z,8.38
2023-04-28T13:55:57.866Z,7.22
2023-04-28T13:59:00.190Z,6.93
2023-04-28T14:02:02.435Z,8.85
2023-04-28T14:05:05.387Z,7.35
2023-04-28T14:08:10.315Z,9.30
2023-04-28T14:11:12.715Z,9.75
2023-04-28T14:14:14.989Z,7.15
2023-04-28T14:17:17.440Z,9.32
2023-04-28T14:20:19.766Z,9.20
2023-04-28T14:23:22.924Z,9.30
2023-04-28T14:26:25.698Z,8.00
2023-04-28T14:29:27.912Z,8.30
2023-04-28T14:32:30.062Z,8.75
2023-04-28T14:35:32.668Z,8.15
2023-04-28T14:38:34.953Z,12.15
2023-04-28T14:41:37.224Z,9.60
2023-04-28T14:44:39.590Z,8.93
2023-04-28T14:47:41.937Z,9.60
2023-04-28T14:50:44.804Z,11.60
2023-04-28T14:53:47.217Z,8.00
2023-04-28T14:56:50.502Z,9.48
2023-04-28T14:59:53.974Z,8.98
2023-04-28T15:02:56.573Z,9.52
2023-04-28T15:05:59.350Z,11.43
2023-04-28T15:09:01.544Z,10.23
2023-04-28T15:12:03.957Z,8.48
2023-04-28T15:15:06.804Z,8.82
2023-04-28T15:18:10.337Z,8.98
2023-04-28T15:21:12.936Z,9.35
2023-04-28T15:24:16.760Z,11.77
2023-04-28T15:27:18.963Z,10.18
2023-04-28T15:30:21.146Z,9.98
2023-04-28T15:33:24.409Z,10.90
2023-04-28T15:36:27.010Z,9.32
2023-04-28T15:39:32.415Z,10.35
2023-04-28T15:42:34.948Z,8.38
2023-04-28T15:45:39.923Z,9.20
2023-04-28T15:48:42.288Z,9.10
2023-04-28T15:51:44.744Z,8.80
2023-04-28T15:54:46.889Z,10.00
2023-04-28T15:57:49.392Z,7.30
2023-04-28T16:00:51.793Z,8.48
2023-04-28T16:03:54.269Z,8.75
2023-04-28T16:06:58.926Z,10.85
2023-04-28T16:10:01.103Z,8.55
2023-04-28T16:13:05.395Z,7.93
2023-04-28T16:16:11.152Z,9.30
2023-04-28T16:19:16.192Z,8.35
2023-04-28T16:22:18.519Z,8.23
2023-04-28T16:25:20.781Z,9.18
2023-04-28T16:28:23.111Z,10.27
2023-04-28T16:31:25.382Z,9.35
2023-04-28T16:34:27.599Z,9.85
2023-04-28T16:37:30.148Z,9.15
2023-04-28T16:40:32.305Z,6.82
2023-04-28T16:43:36.416Z,7.55
2023-04-28T16:46:39.783Z,8.93
2023-04-28T16:49:42.037Z,8.27
2023-04-28T16:52:44.544Z,9.63
2023-04-28T16:55:46.750Z,12.13
2023-04-28T16:58:49.016Z,10.40
2023-04-28T17:01:51.226Z,11.40
2023-04-28T17:04:53.503Z,10.70
2023-04-28T17:07:57.131Z,10.30
2023-04-28T17:11:01.514Z,11.60
2023-04-28T17:14:07.388Z,10.02
2023-04-28T17:17:10.461Z,13.88
2023-04-28T17:20:16.793Z,19.95
2023-04-28T17:23:19.514Z,20.92
2023-04-28T17:26:21.934Z,21.48
2023-04-28T17:29:24.124Z,22.30
2023-04-28T17:32:27.229Z,19.02
2023-04-28T17:35:29.513Z,20.80
2023-04-28T17:38:32.444Z,18.85
2023-04-28T17:41:34.744Z,18.75
2023-04-28T17:44:36.910Z,17.75
2023-04-28T17:47:39.245Z,17.38
2023-04-28T17:50:41.492Z,17.23
2023-04-28T17:53:43.687Z,19.67
2023-04-28T17:56:45.823Z,15.68
2023-04-28T17:59:51.331Z,13.43
2023-04-28T18:02:55.254Z,13.25
2023-04-28T18:05:57.498Z,12.65
2023-04-28T18:08:59.779Z,16.00
2023-04-28T18:12:05.635Z,18.38
2023-04-28T18:15:08.307Z,15.60
2023-04-28T18:18:11.353Z,15.27
2023-04-28T18:21:13.734Z,12.98
2023-04-28T18:24:15.955Z,13.38
2023-04-28T18:27:18.204Z,13.23
2023-04-28T18:30:20.755Z,11.73
2023-04-28T18:33:26.092Z,10.50
2023-04-28T18:36:28.282Z,12.25
2023-04-28T18:39:30.455Z,9.73
2023-04-28T18:42:33.272Z,12.75
2023-04-28T18:45:36.931Z,11.98
2023-04-28T18:48:40.490Z,10.63
2023-04-28T18:51:42.799Z,11.60
2023-04-28T18:54:45.087Z,12.07
2023-04-28T18:57:50.314Z,10.75
2023-04-28T19:00:53.158Z,12.40
2023-04-28T19:03:55.537Z,11.93
2023-04-28T19:06:57.837Z,11.25
2023-04-28T19:10:00.226Z,9.13
2023-04-28T19:13:02.624Z,10.43
2023-04-28T19:16:05.269Z,8.55
2023-04-28T19:19:09.516Z,12.00
2023-04-28T19:22:31.581Z,9.40
2023-04-28T19:25:35.888Z,11.32
2023-04-28T19:28:38.148Z,10.05
2023-04-28T19:31:40.375Z,8.32
2023-04-28T19:34:42.677Z,8.45
2023-04-28T19:37:44.897Z,8.55
2023-04-28T19:40:47.395Z,8.25
2023-04-28T19:43:49.657Z,9.38
2023-04-28T19:46:51.945Z,7.63
2023-04-28T19:49:54.890Z,9.00
2023-04-28T19:52:57.290Z,6.68
2023-04-28T19:56:02.233Z,6.40
2023-04-28T19:59:05.068Z,8.77
2023-04-28T20:02:08.602Z,7.68
2023-04-28T20:05:10.824Z,7.22
2023-04-28T20:08:13.217Z,7.97
2023-04-28T20:11:15.344Z,7.53
2023-04-28T20:14:17.665Z,8.32
2023-04-28T20:17:20.019Z,7.53
2023-04-28T20:20:22.588Z,6.65
2023-04-28T20:23:24.821Z,6.82
2023-04-28T20:26:27.829Z,6.88
2023-04-28T20:29:31.780Z,7.38
2023-04-28T20:32:34.112Z,8.50
2023-04-28T20:35:38.111Z,6.13
2023-04-28T20:38:40.386Z,7.45
2023-04-28T20:41:42.532Z,7.03
2023-04-28T20:44:46.647Z,6.00
2023-04-28T20:47:49.018Z,7.30
2023-04-28T20:50:53.342Z,6.80
2023-04-28T20:53:55.783Z,6.63
2023-04-28T20:56:58.128Z,5.65
2023-04-28T21:00:00.374Z,5.70
2023-04-28T21:03:04.952Z,8.43
2023-04-28T21:06:07.578Z,7.25
2023-04-28T21:09:10.257Z,5.03
2023-04-28T21:12:12.416Z,6.35
2023-04-28T21:15:14.825Z,5.53
2023-04-28T21:18:17.258Z,5.78
2023-04-28T21:21:19.692Z,6.82
2023-04-28T21:24:22.132Z,5.63
2023-04-28T21:27:24.384Z,4.70
2023-04-28T21:30:27.066Z,5.05
2023-04-28T21:33:29.926Z,5.13
2023-04-28T21:36:32.789Z,5.45
2023-04-28T21:39:36.007Z,4.53
2023-04-28T21:42:38.169Z,6.28
2023-04-28T21:45:40.392Z,5.20
2023-04-28T21:48:42.603Z,5.45
2023-04-28T21:51:46.114Z,4.30
2023-04-28T21:54:48.356Z,4.88
2023-04-28T21:57:50.589Z,4.72
2023-04-28T22:00:52.877Z,5.72
2023-04-28T22:03:55.407Z,5.80
2023-04-28T22:06:57.758Z,5.90
2023-04-28T22:10:00.122Z,4.75
2023-04-28T22:13:03.267Z,5.45
2023-04-28T22:16:06.101Z,4.80
2023-04-28T22:19:08.689Z,5.70
2023-04-28T22:22:11.270Z,6.15
2023-04-28T22:25:13.723Z,5.93
2023-04-28T22:28:16.258Z,4.80
2023-04-28T22:31:18.478Z,5.57
2023-04-28T22:34:21.694Z,5.43
2023-04-28T22:37:23.938Z,5.35
2023-04-28T22:40:26.720Z,4.57
2023-04-28T22:43:29.697Z,5.55
2023-04-28T22:46:32.181Z,5.03
2023-04-28T22:49:34.632Z,4.78
2023-04-28T22:52:37.181Z,6.80
2023-04-28T22:55:39.417Z,5.88
2023-04-28T22:58:41.686Z,4.72
2023-04-28T23:01:44.013Z,5.15
2023-04-28T23:04:46.325Z,5.35
2023-04-28T23:07:49.396Z,5.55
2023-04-28T23:10:51.969Z,5.57
2023-04-28T23:13:54.285Z,4.78
2023-04-28T23:16:56.631Z,4.80
2023-04-28T23:19:58.859Z,6.32
2023-04-28T23:23:01.139Z,6.18
2023-04-28T23:26:03.741Z,5.50
2023-04-28T23:29:06.033Z,5.43
2023-04-28T23:32:08.304Z,6.57
2023-04-28T23:35:10.918Z,6.88
2023-04-28T23:38:13.280Z,6.82
2023-04-28T23:41:16.320Z,6.78
2023-04-28T23:44:18.921Z,7.60
2023-04-28T23:47:21.268Z,6.22
2023-04-28T23:50:24.130Z,6.05
2023-04-28T23:53:26.509Z,7.40
2023-04-28T23:56:29.308Z,7.05
2023-04-28T23:59:31.654Z,7.10
